createdAt,value
2018-05-02T00:02:08.069Z,6.53
2018-05-02T00:04:38.852Z,6.49
2018-05-02T00:07:09.564Z,6.42
2018-05-02T00:09:40.276Z,6.38
2018-05-02T00:12:11.080Z,6.43
2018-05-02T00:14:41.857Z,6.39
2018-05-02T00:17:12.609Z,6.37
2018-05-02T00:19:43.337Z,6.39
2018-05-02T00:22:14.098Z,6.37
2018-05-02T00:24:44.916Z,6.32
2018-05-02T00:27:15.618Z,6.25
2018-05-02T00:29:46.347Z,6.17
2018-05-02T00:32:17.056Z,6.16
2018-05-02T00:34:47.872Z,6.16
2018-05-02T00:37:18.542Z,6.07
2018-05-02T00:39:49.297Z,6.00
2018-05-02T00:42:20.063Z,5.92
2018-05-02T00:44:50.783Z,5.95
2018-05-02T00:47:21.518Z,5.95
2018-05-02T00:49:52.287Z,5.97
2018-05-02T00:52:23.003Z,5.97
2018-05-02T00:54:53.799Z,6.00
2018-05-02T00:57:24.485Z,5.99
2018-05-02T00:59:55.804Z,5.99
2018-05-02T01:02:26.603Z,5.93
2018-05-02T01:04:57.732Z,5.89
2018-05-02T01:07:28.563Z,5.83
2018-05-02T01:09:59.860Z,5.84
2018-05-02T01:12:30.573Z,5.84
2018-05-02T01:15:01.336Z,5.88
2018-05-02T01:17:32.104Z,5.87
2018-05-02T01:20:02.832Z,5.81
2018-05-02T01:22:33.578Z,5.81
2018-05-02T01:25:04.343Z,5.77
2018-05-02T01:27:35.153Z,5.69
2018-05-02T01:30:05.903Z,5.64
2018-05-02T01:32:36.094Z,5.58
2018-05-02T01:35:06.992Z,5.51
2018-05-02T01:37:37.668Z,5.45
2018-05-02T01:40:08.420Z,5.50
2018-05-02T01:42:39.175Z,5.50
2018-05-02T01:45:10.548Z,5.48
2018-05-02T01:47:41.346Z,5.45
2018-05-02T01:50:12.164Z,5.41
2018-05-02T01:52:42.880Z,5.32
2018-05-02T01:55:13.670Z,5.24
2018-05-02T01:57:44.412Z,5.20
2018-05-02T02:00:15.192Z,5.14
2018-05-02T02:02:45.713Z,5.14
2018-05-02T02:05:16.199Z,5.14
2018-05-02T02:07:46.952Z,5.12
2018-05-02T02:10:17.736Z,5.09
2018-05-02T02:12:48.464Z,5.04
2018-05-02T02:15:19.237Z,5.06
2018-05-02T02:17:49.972Z,5.01
2018-05-02T02:20:21.112Z,5.00
2018-05-02T02:22:51.914Z,5.04
2018-05-02T02:25:22.686Z,5.03
2018-05-02T02:27:53.454Z,4.99
2018-05-02T02:30:24.253Z,4.95
2018-05-02T02:32:55.029Z,4.94
2018-05-02T02:35:25.774Z,4.93
2018-05-02T02:37:56.629Z,4.92
2018-05-02T02:40:27.568Z,4.87
2018-05-02T02:42:58.319Z,4.85
2018-05-02T02:45:29.108Z,4.92
2018-05-02T02:47:59.813Z,5.01
2018-05-02T02:50:29.952Z,5.01
2018-05-02T02:53:00.744Z,5.09
2018-05-02T02:55:31.551Z,5.04
2018-05-02T02:58:02.360Z,5.00
2018-05-02T03:00:33.087Z,4.84
2018-05-02T03:03:03.907Z,4.70
2018-05-02T03:05:34.622Z,4.60
2018-05-02T03:08:05.408Z,4.53
2018-05-02T03:10:36.146Z,4.49
2018-05-02T03:13:06.884Z,4.42
2018-05-02T03:15:37.978Z,4.39
2018-05-02T03:18:08.513Z,4.38
2018-05-02T03:20:39.250Z,4.33
2018-05-02T03:23:09.912Z,4.32
2018-05-02T03:25:40.646Z,4.34
2018-05-02T03:28:11.343Z,4.37
2018-05-02T03:30:42.134Z,4.42
2018-05-02T03:33:12.812Z,4.40
2018-05-02T03:35:43.632Z,4.42
2018-05-02T03:38:14.443Z,4.47
2018-05-02T03:40:45.205Z,4.52
2018-05-02T03:43:16.067Z,4.60
2018-05-02T03:45:46.949Z,4.69
2018-05-02T03:48:17.683Z,4.77
2018-05-02T03:50:48.390Z,4.87
2018-05-02T03:53:19.187Z,4.99
2018-05-02T03:55:49.945Z,5.08
2018-05-02T03:58:20.759Z,5.15
2018-05-02T04:01:02.499Z,5.28
2018-05-02T04:03:44.109Z,5.46
2018-05-02T04:06:34.686Z,5.70
2018-05-02T04:09:06.213Z,5.99
2018-05-02T04:11:37.037Z,6.36
2018-05-02T04:14:07.782Z,6.65
2018-05-02T04:16:38.559Z,6.89
2018-05-02T04:19:11.979Z,7.12
2018-05-02T04:21:42.762Z,7.36
2018-05-02T04:24:13.543Z,7.57
2018-05-02T04:26:44.306Z,7.71
2018-05-02T04:29:14.903Z,7.90
2018-05-02T04:31:45.594Z,8.13
2018-05-02T04:34:16.361Z,8.34
2018-05-02T04:36:47.192Z,8.48
2018-05-02T04:39:17.911Z,8.57
2018-05-02T04:41:48.743Z,8.71
2018-05-02T04:44:19.397Z,8.82
2018-05-02T04:46:50.123Z,8.93
2018-05-02T04:49:20.898Z,8.97
2018-05-02T04:51:51.617Z,8.96
2018-05-02T04:54:22.334Z,8.90
2018-05-02T04:56:53.020Z,8.93
2018-05-02T04:59:23.148Z,8.84
2018-05-02T05:01:53.875Z,8.88
2018-05-02T05:04:24.639Z,8.82
2018-05-02T05:06:55.510Z,8.68
2018-05-02T05:09:26.369Z,8.52
2018-05-02T05:11:57.250Z,8.52
2018-05-02T05:14:27.940Z,8.90
2018-05-02T05:16:58.676Z,9.37
2018-05-02T05:19:29.416Z,9.73
2018-05-02T05:22:00.089Z,9.89
2018-05-02T05:24:30.802Z,9.66
2018-05-02T05:27:01.534Z,9.31
2018-05-02T05:29:32.257Z,9.40
2018-05-02T05:32:02.978Z,9.17
2018-05-02T05:34:33.714Z,9.47
2018-05-02T05:37:04.458Z,9.72
2018-05-02T05:39:35.162Z,9.62
2018-05-02T05:42:05.853Z,9.89
2018-05-02T05:44:36.573Z,9.86
2018-05-02T05:47:07.271Z,9.68
2018-05-02T05:49:38.044Z,10.05
2018-05-02T05:52:08.755Z,10.20
2018-05-02T05:54:39.499Z,9.96
2018-05-02T05:57:10.270Z,10.59
2018-05-02T05:59:40.990Z,11.39
2018-05-02T06:02:11.723Z,11.76
2018-05-02T06:04:42.417Z,11.21
2018-05-02T06:07:14.349Z,11.58
2018-05-02T06:09:46.417Z,12.26
2018-05-02T06:12:17.166Z,11.98
2018-05-02T06:14:47.842Z,12.32
2018-05-02T06:17:18.773Z,11.58
2018-05-02T06:19:49.514Z,11.52
2018-05-02T06:22:20.249Z,10.96
2018-05-02T06:24:52.109Z,11.07
2018-05-02T06:27:22.959Z,10.86
2018-05-02T06:29:53.822Z,10.69
2018-05-02T06:32:24.579Z,11.08
2018-05-02T06:34:55.358Z,11.56
2018-05-02T06:37:26.034Z,11.65
2018-05-02T06:39:56.803Z,11.55
2018-05-02T06:42:27.453Z,11.62
2018-05-02T06:44:58.260Z,10.88
2018-05-02T06:47:28.904Z,10.67
2018-05-02T06:50:00.070Z,10.60
2018-05-02T06:52:30.779Z,10.51
2018-05-02T06:55:01.491Z,10.62
2018-05-02T06:57:32.245Z,10.80
2018-05-02T07:00:02.996Z,11.06
2018-05-02T07:02:33.705Z,11.44
2018-05-02T07:05:04.456Z,11.64
2018-05-02T07:07:35.165Z,11.30
2018-05-02T07:10:05.938Z,11.56
2018-05-02T07:12:36.645Z,11.48
2018-05-02T07:15:07.323Z,11.89
2018-05-02T07:17:38.082Z,11.60
2018-05-02T07:20:08.806Z,11.93
2018-05-02T07:22:39.574Z,12.04
2018-05-02T07:25:10.297Z,12.58
2018-05-02T07:27:41.050Z,12.69
2018-05-02T07:30:11.793Z,13.03
2018-05-02T07:32:42.637Z,12.80
2018-05-02T07:35:13.306Z,13.41
2018-05-02T07:37:44.037Z,13.33
2018-05-02T07:40:14.798Z,13.83
2018-05-02T07:42:45.538Z,14.30
2018-05-02T07:45:16.244Z,13.65
2018-05-02T07:47:46.950Z,13.45
2018-05-02T07:50:17.695Z,13.64
2018-05-02T07:52:48.368Z,13.34
2018-05-02T07:55:19.691Z,12.75
2018-05-02T07:57:50.348Z,13.41
2018-05-02T08:00:20.534Z,13.28
2018-05-02T08:02:52.345Z,13.46
2018-05-02T08:05:23.047Z,13.72
2018-05-02T08:07:53.798Z,13.69
2018-05-02T08:10:24.482Z,13.70
2018-05-02T08:12:55.205Z,13.94
2018-05-02T08:15:25.880Z,14.01
2018-05-02T08:17:56.547Z,14.30
2018-05-02T08:20:27.275Z,13.78
2018-05-02T08:22:58.007Z,14.44
2018-05-02T08:25:28.711Z,14.40
2018-05-02T08:27:59.477Z,13.80
2018-05-02T08:30:30.238Z,13.39
2018-05-02T08:33:00.872Z,12.78
2018-05-02T08:35:31.606Z,13.32
2018-05-02T08:38:02.322Z,13.72
2018-05-02T08:40:33.086Z,13.37
2018-05-02T08:43:03.781Z,13.48
2018-05-02T08:45:34.559Z,13.27
2018-05-02T08:48:05.280Z,12.55
2018-05-02T08:50:35.968Z,12.35
2018-05-02T08:53:06.716Z,12.39
2018-05-02T08:55:37.414Z,11.90
2018-05-02T08:58:08.149Z,11.98
2018-05-02T09:00:38.937Z,11.83
2018-05-02T09:03:09.698Z,11.84
2018-05-02T09:05:40.405Z,11.71
2018-05-02T09:08:11.055Z,11.67
2018-05-02T09:10:41.757Z,11.82
2018-05-02T09:13:12.462Z,11.89
2018-05-02T09:15:43.201Z,11.96
2018-05-02T09:18:13.933Z,12.25
2018-05-02T09:20:44.641Z,12.00
2018-05-02T09:23:15.371Z,12.12
2018-05-02T09:25:46.105Z,11.85
2018-05-02T09:28:16.849Z,11.77
2018-05-02T09:30:47.567Z,11.78
2018-05-02T09:33:18.335Z,11.76
2018-05-02T09:35:49.065Z,12.21
2018-05-02T09:38:19.805Z,12.27
2018-05-02T09:40:50.498Z,12.36
2018-05-02T09:43:21.232Z,12.99
2018-05-02T09:45:51.993Z,12.68
2018-05-02T09:48:22.709Z,12.91
2018-05-02T09:50:53.408Z,12.51
2018-05-02T09:53:24.161Z,13.40
2018-05-02T09:55:54.905Z,13.10
2018-05-02T09:58:25.668Z,13.68
2018-05-02T10:00:56.428Z,13.64
2018-05-02T10:03:27.133Z,13.08
2018-05-02T10:05:57.824Z,13.23
2018-05-02T10:08:28.564Z,14.20
2018-05-02T10:10:59.329Z,15.04
2018-05-02T10:13:30.063Z,14.84
2018-05-02T10:16:00.811Z,14.71
2018-05-02T10:18:31.600Z,14.69
2018-05-02T10:21:02.285Z,15.14
2018-05-02T10:23:33.136Z,15.47
2018-05-02T10:26:04.721Z,16.45
2018-05-02T10:28:35.460Z,16.14
2018-05-02T10:31:06.221Z,15.81
2018-05-02T10:33:36.929Z,16.10
2018-05-02T10:36:07.661Z,15.80
2018-05-02T10:38:38.177Z,16.94
2018-05-02T10:41:08.983Z,16.62
2018-05-02T10:43:39.693Z,16.42
2018-05-02T10:46:10.421Z,15.78
2018-05-02T10:48:41.128Z,16.39
2018-05-02T10:51:11.861Z,16.72
2018-05-02T10:53:42.619Z,17.16
2018-05-02T10:56:13.373Z,15.81
2018-05-02T10:58:44.601Z,16.42
2018-05-02T11:01:15.795Z,15.68
2018-05-02T11:03:46.304Z,16.09
2018-05-02T11:06:17.012Z,18.19
2018-05-02T11:08:47.746Z,19.22
2018-05-02T11:11:18.501Z,18.54
2018-05-02T11:13:49.232Z,18.49
2018-05-02T11:16:20.088Z,19.19
2018-05-02T11:18:50.784Z,16.69
2018-05-02T11:21:21.574Z,16.96
2018-05-02T11:23:52.284Z,16.52
2018-05-02T11:26:23.052Z,16.69
2018-05-02T11:28:53.779Z,18.23
2018-05-02T11:31:24.545Z,18.35
2018-05-02T11:33:55.230Z,17.53
2018-05-02T11:36:25.820Z,16.81
2018-05-02T11:38:56.515Z,17.75
2018-05-02T11:41:27.367Z,17.36
2018-05-02T11:43:58.044Z,17.73
2018-05-02T11:46:28.772Z,18.08
2018-05-02T11:48:59.508Z,17.50
2018-05-02T11:51:30.192Z,18.64
2018-05-02T11:54:00.916Z,18.79
2018-05-02T11:56:31.674Z,19.50
2018-05-02T11:59:02.363Z,17.42
2018-05-02T12:01:33.108Z,19.04
2018-05-02T12:04:03.846Z,19.43
2018-05-02T12:06:34.620Z,20.52
2018-05-02T12:09:06.331Z,20.47
2018-05-02T12:11:37.064Z,19.22
2018-05-02T12:14:07.853Z,17.99
2018-05-02T12:16:38.613Z,17.67
2018-05-02T12:19:09.346Z,18.83
2018-05-02T12:21:40.162Z,19.70
2018-05-02T12:24:10.924Z,19.83
2018-05-02T12:26:41.654Z,21.04
2018-05-02T12:29:12.378Z,18.80
2018-05-02T12:31:43.143Z,19.23
2018-05-02T12:34:13.883Z,19.06
2018-05-02T12:36:44.644Z,19.63
2018-05-02T12:39:15.407Z,20.15
2018-05-02T12:41:46.102Z,19.07
2018-05-02T12:44:16.878Z,19.11
2018-05-02T12:46:47.621Z,18.44
2018-05-02T12:49:18.355Z,19.29
2018-05-02T12:51:49.106Z,19.22
2018-05-02T12:54:19.879Z,18.83
2018-05-02T12:56:50.590Z,18.88
2018-05-02T12:59:21.310Z,18.82
2018-05-02T13:01:52.095Z,19.11
2018-05-02T13:04:22.827Z,20.00
2018-05-02T13:06:53.617Z,21.56
2018-05-02T13:09:24.381Z,21.32
2018-05-02T13:11:56.259Z,19.68
2018-05-02T13:14:27.875Z,20.53
2018-05-02T13:16:59.075Z,20.31
2018-05-02T13:19:31.492Z,19.12
2018-05-02T13:22:02.303Z,20.46
2018-05-02T13:36:15.976Z,20.25
2018-05-02T13:38:47.034Z,20.06
2018-05-02T13:41:17.776Z,19.58
2018-05-02T13:43:50.043Z,19.91
2018-05-02T13:46:21.336Z,19.34
2018-05-02T13:48:52.128Z,19.51
2018-05-02T13:51:23.121Z,19.93
2018-05-02T13:53:53.927Z,18.81
2018-05-02T13:56:24.856Z,19.66
2018-05-02T13:58:55.677Z,18.92
2018-05-02T14:01:26.443Z,18.93
2018-05-02T14:03:57.184Z,18.86
2018-05-02T14:06:27.954Z,19.67
2018-05-02T14:08:58.779Z,20.61
2018-05-02T14:11:29.514Z,19.45
2018-05-02T14:14:00.296Z,19.88
2018-05-02T14:16:31.057Z,20.04
2018-05-02T14:19:01.919Z,19.55
2018-05-02T14:21:32.610Z,18.87
2018-05-02T14:24:03.340Z,19.79
2018-05-02T14:26:34.296Z,19.94
2018-05-02T14:29:06.263Z,20.56
2018-05-02T14:31:37.478Z,19.87
2018-05-02T14:34:09.119Z,18.39
2018-05-02T14:36:40.111Z,18.08
2018-05-02T14:39:10.895Z,18.62
2018-05-02T14:41:41.743Z,18.28
2018-05-02T14:44:12.515Z,18.12
2018-05-02T14:47:13.203Z,18.62
2018-05-02T14:49:41.557Z,18.86
2018-05-02T14:52:09.900Z,19.08
2018-05-02T14:54:38.275Z,19.23
2018-05-02T14:57:06.648Z,19.29
2018-05-02T14:59:34.988Z,18.65
2018-05-02T15:02:04.734Z,20.09
2018-05-02T15:04:33.081Z,20.21
2018-05-02T15:07:02.911Z,20.86
2018-05-02T15:09:31.500Z,19.00
2018-05-02T15:12:00.588Z,19.93
2018-05-02T15:14:28.893Z,20.17
2018-05-02T15:16:57.283Z,20.25
2018-05-02T15:19:26.483Z,20.82
2018-05-02T15:21:55.647Z,19.91
2018-05-02T15:24:24.087Z,18.68
2018-05-02T15:26:52.565Z,18.16
2018-05-02T15:29:20.960Z,18.62
2018-05-02T15:31:50.911Z,18.70
2018-05-02T15:34:19.284Z,18.59
2018-05-02T15:36:47.686Z,18.62
2018-05-02T15:39:17.024Z,18.74
2018-05-02T15:41:45.522Z,19.29
2018-05-02T15:44:13.936Z,19.32
2018-05-02T15:46:42.632Z,19.25
2018-05-02T15:49:11.057Z,19.45
2018-05-02T15:51:39.597Z,18.90
2018-05-02T15:54:08.059Z,18.60
2018-05-02T15:56:37.432Z,18.84
2018-05-02T15:59:06.022Z,18.75
2018-05-02T16:01:34.491Z,18.50
2018-05-02T16:04:04.175Z,18.86
2018-05-02T16:06:33.309Z,18.94
2018-05-02T16:09:01.939Z,18.70
2018-05-02T16:11:30.426Z,18.90
2018-05-02T16:14:00.119Z,18.80
2018-05-02T16:16:29.504Z,18.60
2018-05-02T16:18:58.577Z,18.59
2018-05-02T16:21:26.895Z,18.94
2018-05-02T16:26:30.819Z,18.68
2018-05-02T16:29:00.283Z,18.81
2018-05-02T16:31:30.259Z,18.90
2018-05-02T16:33:59.629Z,18.75
2018-05-02T16:36:29.804Z,18.68
2018-05-02T16:38:59.321Z,18.53
2018-05-02T16:41:28.459Z,18.67
2018-05-02T16:43:56.888Z,18.53
2018-05-02T16:46:25.254Z,18.22
2018-05-02T16:48:53.607Z,18.32
2018-05-02T16:51:22.403Z,18.24
2018-05-02T16:53:51.862Z,18.15
2018-05-02T16:56:20.444Z,18.14
2018-05-02T16:58:49.860Z,17.75
2018-05-02T17:01:18.668Z,17.69
2018-05-02T17:03:47.896Z,17.59
2018-05-02T17:06:21.643Z,17.53
2018-05-02T17:08:52.042Z,17.61
2018-05-02T17:11:20.469Z,17.58
2018-05-02T17:13:49.761Z,17.39
2018-05-02T17:16:19.668Z,17.39
2018-05-02T17:18:50.454Z,17.49
2018-05-02T17:21:18.793Z,17.42
2018-05-02T17:23:48.189Z,17.63
2018-05-02T17:26:17.499Z,17.66
2018-05-02T17:28:47.043Z,17.38
2018-05-02T17:31:16.081Z,17.38
2018-05-02T17:33:44.718Z,17.81
2018-05-02T17:36:13.786Z,17.86
2018-05-02T17:38:42.568Z,17.58
2018-05-02T17:41:10.983Z,17.57
2018-05-02T17:43:39.357Z,17.56
2018-05-02T17:46:07.704Z,17.35
2018-05-02T17:48:36.078Z,17.50
2018-05-02T17:51:04.442Z,17.08
2018-05-02T17:53:33.542Z,17.08
2018-05-02T17:56:02.318Z,16.89
2018-05-02T17:58:31.127Z,16.76
2018-05-02T18:00:59.636Z,16.74
2018-05-02T18:03:28.030Z,16.61
2018-05-02T18:05:56.958Z,16.48
2018-05-02T18:08:26.102Z,16.42
2018-05-02T18:10:54.436Z,16.31
2018-05-02T18:13:24.443Z,16.26
2018-05-02T18:15:52.857Z,16.13
2018-05-02T18:18:28.152Z,16.15
2018-05-02T18:20:57.344Z,16.03
2018-05-02T18:23:26.330Z,15.92
2018-05-02T18:25:54.701Z,15.86
2018-05-02T18:28:23.154Z,15.72
2018-05-02T18:30:51.906Z,15.67
2018-05-02T18:33:21.677Z,15.64
2018-05-02T18:35:50.094Z,15.65
2018-05-02T18:38:19.205Z,15.54
2018-05-02T18:40:48.368Z,15.51
2018-05-02T18:43:16.754Z,15.49
2018-05-02T18:45:45.087Z,15.47
2018-05-02T18:48:13.429Z,15.48
2018-05-02T18:50:45.386Z,15.46
2018-05-02T18:53:15.574Z,15.43
2018-05-02T18:55:44.056Z,15.51
2018-05-02T18:58:16.638Z,15.54
2018-05-02T19:00:45.039Z,15.53
2018-05-02T19:03:14.154Z,15.48
2018-05-02T19:05:43.189Z,15.43
2018-05-02T19:08:11.578Z,15.45
2018-05-02T19:10:41.044Z,15.40
2018-05-02T19:13:10.168Z,15.32
2018-05-02T19:15:38.531Z,15.24
2018-05-02T19:18:12.479Z,15.30
2018-05-02T19:20:40.784Z,15.34
2018-05-02T19:23:09.941Z,15.31
2018-05-02T19:25:43.781Z,15.27
2018-05-02T19:28:14.049Z,15.28
2018-05-02T19:30:42.421Z,15.24
2018-05-02T19:33:16.382Z,15.29
2018-05-02T19:35:44.840Z,15.25
2018-05-02T19:38:15.657Z,15.21
2018-05-02T19:40:49.383Z,15.10
2018-05-02T19:43:23.329Z,15.04
2018-05-02T19:45:52.413Z,14.95
2018-05-02T19:48:20.860Z,14.88
2018-05-02T19:50:55.654Z,14.87
2018-05-02T19:53:24.140Z,14.82
2018-05-02T19:55:52.676Z,14.76
2018-05-02T19:58:22.225Z,14.72
2018-05-02T20:00:57.167Z,14.68
2018-05-02T20:03:25.553Z,14.71
2018-05-02T20:05:53.969Z,14.76
2018-05-02T20:08:27.769Z,14.78
2018-05-02T20:11:01.770Z,14.72
2018-05-02T20:13:39.413Z,14.79
2018-05-02T20:16:09.565Z,14.77
2018-05-02T20:18:39.361Z,14.75
2018-05-02T20:21:08.327Z,14.74
2018-05-02T20:23:37.999Z,14.76
2018-05-02T20:26:07.053Z,14.80
2018-05-02T20:28:36.983Z,14.81
2018-05-02T20:31:07.781Z,14.83
2018-05-02T20:33:36.509Z,14.85
2018-05-02T20:36:04.873Z,14.79
2018-05-02T20:38:33.443Z,14.78
2018-05-02T20:41:01.799Z,14.71
2018-05-02T20:43:30.917Z,14.69
2018-05-02T20:45:59.278Z,14.69
2018-05-02T20:48:34.489Z,14.69
2018-05-02T20:51:05.002Z,14.63
2018-05-02T20:53:34.151Z,14.62
2018-05-02T20:56:03.081Z,14.63
2018-05-02T20:58:33.614Z,14.59
2018-05-02T21:01:03.847Z,14.53
2018-05-02T21:03:33.009Z,14.52
2018-05-02T21:06:02.297Z,14.47
2018-05-02T21:08:31.659Z,14.35
2018-05-02T21:11:01.371Z,14.29
2018-05-02T21:13:30.505Z,14.23
2018-05-02T21:15:58.877Z,14.19
2018-05-02T21:18:27.211Z,14.18
2018-05-02T21:20:55.542Z,14.13
2018-05-02T21:23:24.241Z,14.10
2018-05-02T21:25:52.630Z,14.17
2018-05-02T21:28:20.991Z,14.34
2018-05-02T21:30:49.594Z,14.59
2018-05-02T21:33:19.067Z,14.62
2018-05-02T21:35:48.404Z,14.55
2018-05-02T21:38:16.745Z,14.55
2018-05-02T21:40:48.514Z,14.54
2018-05-02T21:43:17.175Z,14.48
2018-05-02T21:45:45.929Z,14.51
2018-05-02T21:48:15.062Z,13.56
2018-05-02T21:50:44.376Z,12.55
2018-05-02T21:53:12.712Z,12.15
2018-05-02T21:55:44.120Z,12.01
2018-05-02T21:58:12.459Z,11.90
2018-05-02T22:00:40.789Z,11.99
2018-05-02T22:03:09.172Z,11.92
2018-05-02T22:05:37.496Z,11.85
2018-05-02T22:08:05.852Z,11.74
2018-05-02T22:10:34.988Z,11.79
2018-05-02T22:13:07.368Z,11.67
2018-05-02T22:15:36.642Z,11.67
2018-05-02T22:18:05.728Z,11.64
2018-05-02T22:20:35.076Z,11.68
2018-05-02T22:23:03.407Z,11.68
2018-05-02T22:25:33.116Z,11.78
2018-05-02T22:28:01.459Z,11.83
2018-05-02T22:30:29.779Z,11.89
2018-05-02T22:32:58.140Z,11.88
2018-05-02T22:35:27.272Z,12.00
2018-05-02T22:37:55.591Z,11.97
2018-05-02T22:40:23.957Z,11.87
2018-05-02T22:42:52.295Z,11.96
2018-05-02T22:45:20.666Z,12.01
2018-05-02T22:47:48.986Z,12.05
2018-05-02T22:50:17.332Z,12.15
2018-05-02T22:52:45.688Z,12.32
2018-05-02T22:55:14.067Z,12.29
2018-05-02T22:57:42.373Z,12.35
2018-05-02T23:00:10.748Z,12.37
2018-05-02T23:02:39.089Z,12.35
2018-05-02T23:05:07.412Z,12.36
2018-05-02T23:07:35.768Z,12.37
2018-05-02T23:10:04.119Z,12.53
2018-05-02T23:12:33.209Z,12.52
2018-05-02T23:15:02.339Z,12.43
2018-05-02T23:17:30.672Z,12.34
2018-05-02T23:19:59.760Z,12.39
2018-05-02T23:22:28.131Z,12.46
2018-05-02T23:24:56.503Z,12.41
2018-05-02T23:27:24.847Z,12.34
2018-05-02T23:29:53.221Z,12.29
2018-05-02T23:32:22.559Z,12.27
2018-05-02T23:34:50.908Z,12.27
2018-05-02T23:37:19.303Z,12.39
2018-05-02T23:39:48.040Z,12.42
2018-05-02T23:42:17.122Z,12.49
2018-05-02T23:44:46.262Z,12.52
2018-05-02T23:47:14.616Z,12.54
2018-05-02T23:49:42.954Z,12.52
2018-05-02T23:52:12.094Z,12.57
2018-05-02T23:54:41.219Z,12.56
2018-05-02T23:57:09.547Z,12.54
2018-05-02T23:59:38.312Z,12.55
